NY21 weather

Dewitt Heliport
Webster, New York, United States

Public forecast

Using degrees Fahrenheit for public forecast. Weather courtesy of forecast.io.

Closest aviation weather report (METAR) to Dewitt Heliport

Closest report is Greater Rochester International Airport, 8.3 nm (15.3 km) SW. Retrieved 2020/01/23 12:54 UTC (54 minutes ago):

KROC 231254Z 23007KT 10SM SCT200 BKN250 M05/M14 A3029 RMK AO2 SLP271 T10501139

Closest aviation forecast (TAF) to Dewitt Heliport

Closest forecast is Greater Rochester International Airport, 8.3 nm (15.3 km) SW. Retrieved 2020/01/23 12:40 UTC (1 hour ago):

TAF KROC 231138Z 2312/2412 22008KT P6SM SCT250 FM231500 19004KT P6SM BKN250 FM231900 VRB03KT P6SM BKN120 FM241000 12004KT P6SM OVC080